Farmersville, Ohio
Current Conditions -  °F | °C
As of 3:55 AM on Wednesday 26 Nov 2014 (Local Time) from KMWO Reporting Station
Overcast Overcast  
Wind Chill: 26°   Ceiling: 1700
Heat Index: 32°   Visibility: 10mi
Dew Point: 26°   Wind: 6mph
Humidity: 79%   Direction: 50°NE
Pressure: 30.17"   Gusts: NA
Location:  39.68°N, 84.43°W
Report Text: KMWO 260855Z AUTO 05005KT 10SM OVC017 00/M03 A3017 RMK AO2 T00001033
Loading
Personal Weather Stations






























Interactive Weather Map New forecast layout! Learn more

10-Day Weather Forecast

Advertisements
Track Severe Weather on mobile